sensor_id;sensor_type;location;lat;lon;timestamp;pressure;altitude;pressure_sealevel;temperature;humidity
44213;BME280;29882;46.356;17.798;2022-12-07T00:00:55;99852.69;;;0.47;100.00
44213;BME280;29882;46.356;17.798;2022-12-07T00:03:30;99847.91;;;0.52;100.00
44213;BME280;29882;46.356;17.798;2022-12-07T00:05:57;99853.41;;;0.49;100.00
44213;BME280;29882;46.356;17.798;2022-12-07T00:08:24;99855.44;;;0.46;100.00
44213;BME280;29882;46.356;17.798;2022-12-07T00:10:51;99846.22;;;0.51;100.00
44213;BME280;29882;46.356;17.798;2022-12-07T00:13:18;99847.53;;;0.71;100.00
44213;BME280;29882;46.356;17.798;2022-12-07T00:15:45;99848.59;;;0.69;100.00
44213;BME280;29882;46.356;17.798;2022-12-07T00:18:12;99853.09;;;0.81;100.00
44213;BME280;29882;46.356;17.798;2022-12-07T00:20:39;99863.50;;;0.97;100.00
44213;BME280;29882;46.356;17.798;2022-12-07T00:23:06;99856.00;;;1.03;100.00
44213;BME280;29882;46.356;17.798;2022-12-07T00:25:32;99857.72;;;1.17;100.00
44213;BME280;29882;46.356;17.798;2022-12-07T00:27:59;99856.72;;;1.05;100.00
44213;BME280;29882;46.356;17.798;2022-12-07T00:30:26;99855.56;;;0.97;100.00
44213;BME280;29882;46.356;17.798;2022-12-07T00:32:53;99858.28;;;0.82;100.00
44213;BME280;29882;46.356;17.798;2022-12-07T00:35:20;99860.09;;;0.82;100.00
44213;BME280;29882;46.356;17.798;2022-12-07T00:37:47;99851.38;;;0.80;100.00
44213;BME280;29882;46.356;17.798;2022-12-07T00:40:14;99852.44;;;0.77;100.00
44213;BME280;29882;46.356;17.798;2022-12-07T00:42:41;99851.34;;;0.67;100.00
44213;BME280;29882;46.356;17.798;2022-12-07T00:45:08;99852.94;;;0.70;100.00
44213;BME280;29882;46.356;17.798;2022-12-07T00:47:35;99860.56;;;0.62;100.00
44213;BME280;29882;46.356;17.798;2022-12-07T00:50:02;99854.97;;;0.66;100.00
44213;BME280;29882;46.356;17.798;2022-12-07T00:52:29;99859.00;;;0.72;100.00
44213;BME280;29882;46.356;17.798;2022-12-07T00:54:56;99863.03;;;0.77;100.00
44213;BME280;29882;46.356;17.798;2022-12-07T00:57:23;99857.53;;;0.80;100.00
44213;BME280;29882;46.356;17.798;2022-12-07T00:59:50;99858.56;;;0.65;100.00
44213;BME280;29882;46.356;17.798;2022-12-07T01:02:17;99854.97;;;0.66;100.00
44213;BME280;29882;46.356;17.798;2022-12-07T01:04:44;99857.75;;;0.77;100.00
44213;BME280;29882;46.356;17.798;2022-12-07T01:07:11;99860.25;;;0.66;100.00
44213;BME280;29882;46.356;17.798;2022-12-07T01:09:37;99849.44;;;0.69;100.00
44213;BME280;29882;46.356;17.798;2022-12-07T01:12:04;99854.84;;;0.55;100.00
44213;BME280;29882;46.356;17.798;2022-12-07T01:14:31;99850.56;;;0.52;100.00
44213;BME280;29882;46.356;17.798;2022-12-07T01:16:58;99848.63;;;0.42;100.00
44213;BME280;29882;46.356;17.798;2022-12-07T01:19:25;99846.91;;;0.41;100.00
44213;BME280;29882;46.356;17.798;2022-12-07T01:21:52;99846.66;;;0.31;100.00
44213;BME280;29882;46.356;17.798;2022-12-07T01:24:19;99853.47;;;0.35;100.00
44213;BME280;29882;46.356;17.798;2022-12-07T01:26:48;99844.25;;;0.41;100.00
44213;BME280;29882;46.356;17.798;2022-12-07T01:29:15;99843.63;;;0.37;100.00
44213;BME280;29882;46.356;17.798;2022-12-07T01:31:42;99834.28;;;0.17;100.00
44213;BME280;29882;46.356;17.798;2022-12-07T01:34:08;99836.25;;;0.01;100.00
44213;BME280;29882;46.356;17.798;2022-12-07T01:36:36;99826.31;;;0.05;100.00
44213;BME280;29882;46.356;17.798;2022-12-07T01:39:04;99829.09;;;0.16;100.00
44213;BME280;29882;46.356;17.798;2022-12-07T01:41:32;99822.31;;;0.12;100.00
44213;BME280;29882;46.356;17.798;2022-12-07T01:44:10;99818.06;;;0.09;100.00
44213;BME280;29882;46.356;17.798;2022-12-07T01:46:37;99811.75;;;-0.03;100.00
44213;BME280;29882;46.356;17.798;2022-12-07T01:49:05;99816.28;;;-0.05;100.00
44213;BME280;29882;46.356;17.798;2022-12-07T01:51:33;99814.84;;;0.04;100.00
44213;BME280;29882;46.356;17.798;2022-12-07T01:54:01;99812.97;;;-0.35;100.00
44213;BME280;29882;46.356;17.798;2022-12-07T01:56:28;99816.34;;;-0.33;100.00
44213;BME280;29882;46.356;17.798;2022-12-07T01:58:55;99803.91;;;-0.18;100.00
44213;BME280;29882;46.356;17.798;2022-12-07T02:01:24;99811.59;;;-0.28;100.00
44213;BME280;29882;46.356;17.798;2022-12-07T02:03:51;99803.59;;;-0.26;100.00
44213;BME280;29882;46.356;17.798;2022-12-07T02:06:20;99804.44;;;-0.40;100.00
44213;BME280;29882;46.356;17.798;2022-12-07T02:08:48;99810.03;;;-0.45;100.00
44213;BME280;29882;46.356;17.798;2022-12-07T02:11:15;99811.25;;;-0.50;100.00
44213;BME280;29882;46.356;17.798;2022-12-07T02:13:43;99813.34;;;-0.41;100.00
44213;BME280;29882;46.356;17.798;2022-12-07T02:34:20;99786.28;;;-0.32;100.00
44213;BME280;29882;46.356;17.798;2022-12-07T02:36:53;99786.75;;;-0.25;100.00
44213;BME280;29882;46.356;17.798;2022-12-07T02:39:34;99795.91;;;-0.17;100.00
44213;BME280;29882;46.356;17.798;2022-12-07T02:42:07;99788.44;;;-0.24;100.00
44213;BME280;29882;46.356;17.798;2022-12-07T02:44:36;99792.69;;;-0.36;100.00
44213;BME280;29882;46.356;17.798;2022-12-07T02:47:05;99788.34;;;-0.23;100.00
44213;BME280;29882;46.356;17.798;2022-12-07T02:49:33;99782.97;;;-0.36;100.00
44213;BME280;29882;46.356;17.798;2022-12-07T02:52:00;99788.59;;;-0.28;100.00
44213;BME280;29882;46.356;17.798;2022-12-07T02:54:27;99778.47;;;-0.21;100.00
44213;BME280;29882;46.356;17.798;2022-12-07T02:57:03;99774.63;;;-0.30;100.00
44213;BME280;29882;46.356;17.798;2022-12-07T03:10:09;99781.59;;;-0.14;100.00
44213;BME280;29882;46.356;17.798;2022-12-07T03:18:02;99778.34;;;-0.05;100.00
44213;BME280;29882;46.356;17.798;2022-12-07T03:20:31;99783.56;;;-0.04;100.00
44213;BME280;29882;46.356;17.798;2022-12-07T03:23:01;99785.13;;;-0.01;100.00
44213;BME280;29882;46.356;17.798;2022-12-07T03:25:29;99784.22;;;0.00;100.00
44213;BME280;29882;46.356;17.798;2022-12-07T03:28:01;99787.16;;;-0.19;100.00
44213;BME280;29882;46.356;17.798;2022-12-07T03:35:27;99790.84;;;-0.07;100.00
44213;BME280;29882;46.356;17.798;2022-12-07T03:40:34;99784.47;;;-0.32;100.00
44213;BME280;29882;46.356;17.798;2022-12-07T03:43:01;99789.47;;;-0.27;100.00
44213;BME280;29882;46.356;17.798;2022-12-07T03:45:32;99792.22;;;-0.29;100.00
44213;BME280;29882;46.356;17.798;2022-12-07T03:50:43;99780.34;;;-0.36;100.00
44213;BME280;29882;46.356;17.798;2022-12-07T03:55:59;99777.00;;;-0.39;100.00
44213;BME280;29882;46.356;17.798;2022-12-07T03:58:27;99774.81;;;-0.33;100.00
44213;BME280;29882;46.356;17.798;2022-12-07T04:00:54;99787.13;;;-0.46;100.00
44213;BME280;29882;46.356;17.798;2022-12-07T04:03:21;99781.13;;;-0.62;100.00
44213;BME280;29882;46.356;17.798;2022-12-07T04:05:48;99776.47;;;-0.44;100.00
44213;BME280;29882;46.356;17.798;2022-12-07T04:08:15;99776.16;;;-0.40;100.00
44213;BME280;29882;46.356;17.798;2022-12-07T04:10:42;99773.78;;;-0.30;100.00
44213;BME280;29882;46.356;17.798;2022-12-07T04:13:09;99771.88;;;-0.28;100.00
44213;BME280;29882;46.356;17.798;2022-12-07T04:15:36;99775.38;;;-0.28;100.00
44213;BME280;29882;46.356;17.798;2022-12-07T04:18:03;99770.75;;;-0.24;100.00
44213;BME280;29882;46.356;17.798;2022-12-07T04:20:30;99770.44;;;-0.19;100.00
44213;BME280;29882;46.356;17.798;2022-12-07T04:22:56;99771.69;;;-0.25;100.00
44213;BME280;29882;46.356;17.798;2022-12-07T04:25:23;99770.53;;;-0.21;100.00
44213;BME280;29882;46.356;17.798;2022-12-07T04:27:50;99771.22;;;-0.17;100.00
44213;BME280;29882;46.356;17.798;2022-12-07T04:30:17;99756.28;;;-0.33;100.00
44213;BME280;29882;46.356;17.798;2022-12-07T04:32:44;99757.59;;;-0.25;100.00
44213;BME280;29882;46.356;17.798;2022-12-07T04:35:11;99762.91;;;-0.40;100.00
44213;BME280;29882;46.356;17.798;2022-12-07T04:37:38;99755.47;;;-0.47;100.00
44213;BME280;29882;46.356;17.798;2022-12-07T04:40:09;99762.66;;;-0.49;100.00
44213;BME280;29882;46.356;17.798;2022-12-07T04:42:37;99766.72;;;-0.58;100.00
44213;BME280;29882;46.356;17.798;2022-12-07T04:45:05;99772.97;;;-0.59;100.00
44213;BME280;29882;46.356;17.798;2022-12-07T04:47:32;99768.16;;;-0.52;100.00
44213;BME280;29882;46.356;17.798;2022-12-07T04:49:59;99765.47;;;-0.38;100.00
44213;BME280;29882;46.356;17.798;2022-12-07T04:52:26;99765.94;;;-0.46;100.00
44213;BME280;29882;46.356;17.798;2022-12-07T04:54:53;99773.06;;;-0.61;100.00
44213;BME280;29882;46.356;17.798;2022-12-07T04:57:20;99776.09;;;-0.67;100.00
44213;BME280;29882;46.356;17.798;2022-12-07T04:59:47;99780.06;;;-0.60;100.00
44213;BME280;29882;46.356;17.798;2022-12-07T05:02:13;99775.78;;;-0.48;100.00
44213;BME280;29882;46.356;17.798;2022-12-07T05:04:40;99767.94;;;-0.35;100.00
44213;BME280;29882;46.356;17.798;2022-12-07T05:07:07;99771.38;;;-0.20;100.00
44213;BME280;29882;46.356;17.798;2022-12-07T05:09:34;99769.53;;;-0.33;100.00
44213;BME280;29882;46.356;17.798;2022-12-07T05:12:01;99776.09;;;-0.52;100.00
44213;BME280;29882;46.356;17.798;2022-12-07T05:14:28;99771.13;;;-0.30;100.00
44213;BME280;29882;46.356;17.798;2022-12-07T05:16:55;99778.44;;;-0.48;100.00
44213;BME280;29882;46.356;17.798;2022-12-07T05:19:22;99778.16;;;-0.43;100.00
44213;BME280;29882;46.356;17.798;2022-12-07T05:21:49;99785.34;;;-0.60;100.00
44213;BME280;29882;46.356;17.798;2022-12-07T05:24:16;99784.59;;;-0.76;100.00
44213;BME280;29882;46.356;17.798;2022-12-07T05:26:44;99790.28;;;-0.53;100.00
44213;BME280;29882;46.356;17.798;2022-12-07T05:29:12;99781.97;;;-0.62;100.00
44213;BME280;29882;46.356;17.798;2022-12-07T05:31:39;99787.81;;;-0.57;100.00
44213;BME280;29882;46.356;17.798;2022-12-07T05:34:07;99787.53;;;-0.52;100.00
44213;BME280;29882;46.356;17.798;2022-12-07T05:36:33;99784.88;;;-0.52;100.00
44213;BME280;29882;46.356;17.798;2022-12-07T05:39:00;99784.41;;;-0.44;100.00
44213;BME280;29882;46.356;17.798;2022-12-07T05:41:27;99791.09;;;-0.39;100.00
44213;BME280;29882;46.356;17.798;2022-12-07T05:44:13;99779.38;;;-0.35;100.00
44213;BME280;29882;46.356;17.798;2022-12-07T05:46:40;99780.72;;;-0.42;100.00
44213;BME280;29882;46.356;17.798;2022-12-07T05:49:07;99780.75;;;-0.29;100.00
44213;BME280;29882;46.356;17.798;2022-12-07T05:51:34;99780.66;;;-0.28;100.00
44213;BME280;29882;46.356;17.798;2022-12-07T05:54:03;99793.19;;;-0.44;100.00
44213;BME280;29882;46.356;17.798;2022-12-07T05:56:30;99783.25;;;-0.26;100.00
44213;BME280;29882;46.356;17.798;2022-12-07T05:58:57;99772.53;;;-0.24;100.00
44213;BME280;29882;46.356;17.798;2022-12-07T06:01:42;99773.03;;;-0.32;100.00
44213;BME280;29882;46.356;17.798;2022-12-07T06:04:09;99781.69;;;-0.16;100.00
44213;BME280;29882;46.356;17.798;2022-12-07T06:06:36;99781.50;;;-0.27;100.00
44213;BME280;29882;46.356;17.798;2022-12-07T06:09:03;99781.34;;;-0.24;100.00
44213;BME280;29882;46.356;17.798;2022-12-07T06:11:30;99776.78;;;-0.22;100.00
44213;BME280;29882;46.356;17.798;2022-12-07T06:14:15;99774.59;;;-0.15;100.00
44213;BME280;29882;46.356;17.798;2022-12-07T06:16:42;99775.34;;;-0.13;100.00
44213;BME280;29882;46.356;17.798;2022-12-07T06:19:09;99776.22;;;-0.27;100.00
44213;BME280;29882;46.356;17.798;2022-12-07T06:21:36;99782.28;;;-0.25;100.00
44213;BME280;29882;46.356;17.798;2022-12-07T06:24:04;99785.78;;;-0.24;100.00
44213;BME280;29882;46.356;17.798;2022-12-07T06:26:31;99791.09;;;-0.24;100.00
44213;BME280;29882;46.356;17.798;2022-12-07T06:28:57;99789.34;;;-0.11;100.00
44213;BME280;29882;46.356;17.798;2022-12-07T06:31:24;99795.97;;;-0.18;100.00
44213;BME280;29882;46.356;17.798;2022-12-07T06:33:56;99793.25;;;-0.31;100.00
44213;BME280;29882;46.356;17.798;2022-12-07T06:36:23;99796.78;;;-0.59;100.00
44213;BME280;29882;46.356;17.798;2022-12-07T06:38:53;99806.53;;;-0.60;100.00
44213;BME280;29882;46.356;17.798;2022-12-07T06:41:20;99810.88;;;-0.44;100.00
44213;BME280;29882;46.356;17.798;2022-12-07T06:43:47;99809.44;;;-0.64;100.00
44213;BME280;29882;46.356;17.798;2022-12-07T06:46:21;99811.56;;;-0.69;100.00
44213;BME280;29882;46.356;17.798;2022-12-07T06:48:48;99806.25;;;-0.69;100.00
44213;BME280;29882;46.356;17.798;2022-12-07T06:51:15;99807.84;;;-0.67;100.00
44213;BME280;29882;46.356;17.798;2022-12-07T06:53:42;99817.91;;;-0.72;100.00
44213;BME280;29882;46.356;17.798;2022-12-07T06:56:09;99811.91;;;-0.75;100.00
44213;BME280;29882;46.356;17.798;2022-12-07T06:58:36;99811.66;;;-0.71;100.00
44213;BME280;29882;46.356;17.798;2022-12-07T07:01:07;99814.75;;;-0.50;100.00
44213;BME280;29882;46.356;17.798;2022-12-07T07:03:34;99820.41;;;-0.56;100.00
44213;BME280;29882;46.356;17.798;2022-12-07T07:06:01;99828.81;;;-0.92;100.00
44213;BME280;29882;46.356;17.798;2022-12-07T07:08:28;99827.81;;;-0.90;100.00
44213;BME280;29882;46.356;17.798;2022-12-07T07:10:55;99832.13;;;-0.74;100.00
44213;BME280;29882;46.356;17.798;2022-12-07T07:13:22;99837.16;;;-0.55;100.00
44213;BME280;29882;46.356;17.798;2022-12-07T07:15:49;99840.94;;;-0.60;100.00
44213;BME280;29882;46.356;17.798;2022-12-07T07:18:16;99837.91;;;-0.68;100.00
44213;BME280;29882;46.356;17.798;2022-12-07T07:20:42;99844.53;;;-0.46;100.00
44213;BME280;29882;46.356;17.798;2022-12-07T07:23:09;99847.38;;;-0.35;100.00
44213;BME280;29882;46.356;17.798;2022-12-07T07:25:36;99853.81;;;-0.25;100.00
44213;BME280;29882;46.356;17.798;2022-12-07T07:28:03;99845.00;;;-0.40;100.00
44213;BME280;29882;46.356;17.798;2022-12-07T07:30:30;99859.78;;;-0.36;100.00
44213;BME280;29882;46.356;17.798;2022-12-07T07:32:58;99860.63;;;-0.35;100.00
44213;BME280;29882;46.356;17.798;2022-12-07T07:35:26;99859.63;;;-0.20;100.00
44213;BME280;29882;46.356;17.798;2022-12-07T07:37:53;99852.06;;;-0.12;100.00
44213;BME280;29882;46.356;17.798;2022-12-07T07:40:20;99861.16;;;-0.16;100.00
44213;BME280;29882;46.356;17.798;2022-12-07T07:42:48;99859.53;;;-0.04;100.00
44213;BME280;29882;46.356;17.798;2022-12-07T07:45:15;99855.78;;;-0.29;100.00
44213;BME280;29882;46.356;17.798;2022-12-07T07:47:42;99848.50;;;-0.25;100.00
44213;BME280;29882;46.356;17.798;2022-12-07T07:50:09;99860.47;;;-0.05;100.00
44213;BME280;29882;46.356;17.798;2022-12-07T07:52:36;99863.06;;;-0.18;100.00
44213;BME280;29882;46.356;17.798;2022-12-07T07:55:03;99865.88;;;-0.07;100.00
44213;BME280;29882;46.356;17.798;2022-12-07T07:57:30;99864.81;;;0.10;100.00
44213;BME280;29882;46.356;17.798;2022-12-07T07:59:57;99863.97;;;0.10;100.00
44213;BME280;29882;46.356;17.798;2022-12-07T08:02:24;99867.66;;;0.34;100.00
44213;BME280;29882;46.356;17.798;2022-12-07T08:04:51;99862.72;;;0.42;100.00
44213;BME280;29882;46.356;17.798;2022-12-07T08:07:18;99863.78;;;0.40;100.00
44213;BME280;29882;46.356;17.798;2022-12-07T08:09:44;99867.19;;;0.42;100.00
44213;BME280;29882;46.356;17.798;2022-12-07T08:12:11;99862.56;;;0.58;100.00
44213;BME280;29882;46.356;17.798;2022-12-07T08:14:38;99855.84;;;0.52;100.00
44213;BME280;29882;46.356;17.798;2022-12-07T08:17:05;99860.63;;;0.47;100.00
44213;BME280;29882;46.356;17.798;2022-12-07T08:19:32;99856.72;;;0.53;100.00
44213;BME280;29882;46.356;17.798;2022-12-07T08:21:59;99855.22;;;0.49;100.00
44213;BME280;29882;46.356;17.798;2022-12-07T08:24:26;99856.41;;;0.57;100.00
44213;BME280;29882;46.356;17.798;2022-12-07T08:26:56;99860.53;;;0.49;100.00
44213;BME280;29882;46.356;17.798;2022-12-07T08:29:23;99855.78;;;0.54;100.00
44213;BME280;29882;46.356;17.798;2022-12-07T08:31:50;99854.00;;;0.67;100.00
44213;BME280;29882;46.356;17.798;2022-12-07T08:34:17;99859.88;;;0.85;100.00
44213;BME280;29882;46.356;17.798;2022-12-07T08:36:44;99865.59;;;0.79;100.00
44213;BME280;29882;46.356;17.798;2022-12-07T08:39:11;99867.44;;;0.91;100.00
44213;BME280;29882;46.356;17.798;2022-12-07T08:41:58;99873.72;;;0.90;100.00
44213;BME280;29882;46.356;17.798;2022-12-07T08:44:25;99867.25;;;1.07;100.00
44213;BME280;29882;46.356;17.798;2022-12-07T08:46:53;99865.41;;;0.82;100.00
44213;BME280;29882;46.356;17.798;2022-12-07T08:49:27;99858.75;;;1.02;100.00
44213;BME280;29882;46.356;17.798;2022-12-07T08:51:54;99870.38;;;1.26;100.00
44213;BME280;29882;46.356;17.798;2022-12-07T08:54:21;99876.59;;;1.25;100.00
44213;BME280;29882;46.356;17.798;2022-12-07T08:56:49;99876.84;;;1.35;100.00
44213;BME280;29882;46.356;17.798;2022-12-07T08:59:24;99884.91;;;1.46;100.00
44213;BME280;29882;46.356;17.798;2022-12-07T09:01:52;99878.13;;;1.55;100.00
44213;BME280;29882;46.356;17.798;2022-12-07T09:04:19;99882.69;;;1.27;100.00
44213;BME280;29882;46.356;17.798;2022-12-07T09:06:47;99879.38;;;1.24;100.00
44213;BME280;29882;46.356;17.798;2022-12-07T09:09:14;99878.75;;;1.46;100.00
44213;BME280;29882;46.356;17.798;2022-12-07T09:11:41;99882.25;;;1.46;100.00
44213;BME280;29882;46.356;17.798;2022-12-07T09:14:08;99885.22;;;1.67;100.00
44213;BME280;29882;46.356;17.798;2022-12-07T09:16:35;99886.59;;;1.60;100.00
44213;BME280;29882;46.356;17.798;2022-12-07T09:19:02;99888.41;;;1.59;100.00
44213;BME280;29882;46.356;17.798;2022-12-07T09:21:29;99887.47;;;1.48;100.00
44213;BME280;29882;46.356;17.798;2022-12-07T09:23:56;99880.00;;;1.53;100.00
44213;BME280;29882;46.356;17.798;2022-12-07T09:26:23;99873.97;;;1.51;100.00
44213;BME280;29882;46.356;17.798;2022-12-07T09:28:50;99869.09;;;1.45;100.00
44213;BME280;29882;46.356;17.798;2022-12-07T09:31:17;99876.09;;;1.58;100.00
44213;BME280;29882;46.356;17.798;2022-12-07T09:33:56;99870.66;;;1.22;100.00
44213;BME280;29882;46.356;17.798;2022-12-07T09:36:29;99865.47;;;1.71;100.00
44213;BME280;29882;46.356;17.798;2022-12-07T09:38:55;99868.75;;;1.75;100.00
44213;BME280;29882;46.356;17.798;2022-12-07T09:41:23;99870.91;;;2.06;100.00
44213;BME280;29882;46.356;17.798;2022-12-07T09:43:50;99862.66;;;1.98;100.00
44213;BME280;29882;46.356;17.798;2022-12-07T09:46:18;99852.88;;;1.98;100.00
44213;BME280;29882;46.356;17.798;2022-12-07T09:48:46;99867.00;;;1.99;100.00
44213;BME280;29882;46.356;17.798;2022-12-07T09:53:50;99862.84;;;1.95;100.00
44213;BME280;29882;46.356;17.798;2022-12-07T09:56:17;99858.72;;;1.91;100.00
44213;BME280;29882;46.356;17.798;2022-12-07T09:58:45;99853.06;;;1.95;100.00
44213;BME280;29882;46.356;17.798;2022-12-07T10:01:13;99852.94;;;2.10;100.00
44213;BME280;29882;46.356;17.798;2022-12-07T10:06:32;99845.56;;;2.26;100.00
44213;BME280;29882;46.356;17.798;2022-12-07T10:08:59;99842.03;;;2.49;100.00
44213;BME280;29882;46.356;17.798;2022-12-07T10:11:26;99832.66;;;2.56;100.00
44213;BME280;29882;46.356;17.798;2022-12-07T10:13:53;99843.63;;;2.87;100.00
44213;BME280;29882;46.356;17.798;2022-12-07T10:18:50;99829.03;;;2.93;100.00
44213;BME280;29882;46.356;17.798;2022-12-07T10:21:18;99829.28;;;2.90;100.00
44213;BME280;29882;46.356;17.798;2022-12-07T10:24:13;99825.53;;;2.92;100.00
44213;BME280;29882;46.356;17.798;2022-12-07T15:02:26;99763.16;;;5.83;100.00
44213;BME280;29882;46.356;17.798;2022-12-07T15:09:56;99773.66;;;7.86;100.00
44213;BME280;29882;46.356;17.798;2022-12-07T15:12:23;99771.88;;;6.74;100.00
44213;BME280;29882;46.356;17.798;2022-12-07T15:14:51;99774.38;;;6.08;100.00
44213;BME280;29882;46.356;17.798;2022-12-07T15:17:18;99775.75;;;5.62;100.00
44213;BME280;29882;46.356;17.798;2022-12-07T15:19:57;99780.66;;;5.26;100.00
44213;BME280;29882;46.356;17.798;2022-12-07T15:22:24;99782.69;;;4.92;100.00
44213;BME280;29882;46.356;17.798;2022-12-07T15:24:52;99783.81;;;4.69;100.00
44213;BME280;29882;46.356;17.798;2022-12-07T15:27:19;99785.34;;;4.50;100.00
44213;BME280;29882;46.356;17.798;2022-12-07T15:29:46;99787.31;;;4.37;100.00
44213;BME280;29882;46.356;17.798;2022-12-07T15:32:13;99789.53;;;4.21;100.00
44213;BME280;29882;46.356;17.798;2022-12-07T15:34:40;99792.72;;;4.15;100.00
44213;BME280;29882;46.356;17.798;2022-12-07T15:37:07;99767.91;;;3.92;100.00
44213;BME280;29882;46.356;17.798;2022-12-07T15:39:36;99792.28;;;3.98;100.00
44213;BME280;29882;46.356;17.798;2022-12-07T15:42:03;99788.28;;;3.93;100.00
44213;BME280;29882;46.356;17.798;2022-12-07T15:44:31;99788.78;;;3.87;100.00
44213;BME280;29882;46.356;17.798;2022-12-07T15:47:16;99790.13;;;3.81;100.00
44213;BME280;29882;46.356;17.798;2022-12-07T15:49:44;99787.94;;;3.75;100.00
44213;BME280;29882;46.356;17.798;2022-12-07T15:52:11;99767.94;;;3.58;100.00
44213;BME280;29882;46.356;17.798;2022-12-07T15:54:38;99789.63;;;3.65;100.00
44213;BME280;29882;46.356;17.798;2022-12-07T15:57:05;99789.91;;;3.62;100.00
44213;BME280;29882;46.356;17.798;2022-12-07T15:59:32;99790.88;;;3.61;100.00
44213;BME280;29882;46.356;17.798;2022-12-07T16:01:59;99796.66;;;3.55;100.00
44213;BME280;29882;46.356;17.798;2022-12-07T16:04:27;99781.75;;;3.41;100.00
44213;BME280;29882;46.356;17.798;2022-12-07T16:06:56;99794.59;;;3.47;100.00
44213;BME280;29882;46.356;17.798;2022-12-07T16:09:23;99803.06;;;3.41;100.00
44213;BME280;29882;46.356;17.798;2022-12-07T16:11:50;99780.66;;;3.21;100.00
44213;BME280;29882;46.356;17.798;2022-12-07T16:14:19;99805.47;;;3.22;100.00
44213;BME280;29882;46.356;17.798;2022-12-07T16:16:47;99806.69;;;3.18;100.00
44213;BME280;29882;46.356;17.798;2022-12-07T16:19:14;99807.41;;;3.20;100.00
44213;BME280;29882;46.356;17.798;2022-12-07T16:21:41;99800.66;;;3.16;100.00
44213;BME280;29882;46.356;17.798;2022-12-07T16:24:09;99802.09;;;3.08;100.00
44213;BME280;29882;46.356;17.798;2022-12-07T16:26:36;99806.44;;;3.09;100.00
44213;BME280;29882;46.356;17.798;2022-12-07T16:29:04;99785.59;;;2.92;100.00
44213;BME280;29882;46.356;17.798;2022-12-07T16:31:31;99808.56;;;2.93;100.00
44213;BME280;29882;46.356;17.798;2022-12-07T16:33:58;99808.09;;;2.88;100.00
44213;BME280;29882;46.356;17.798;2022-12-07T16:36:25;99810.50;;;2.91;100.00
44213;BME280;29882;46.356;17.798;2022-12-07T16:39:14;99823.88;;;2.78;100.00
44213;BME280;29882;46.356;17.798;2022-12-07T16:41:41;99823.53;;;2.72;100.00
44213;BME280;29882;46.356;17.798;2022-12-07T16:44:11;99829.41;;;2.64;100.00
44213;BME280;29882;46.356;17.798;2022-12-07T16:46:39;99827.09;;;2.60;100.00
44213;BME280;29882;46.356;17.798;2022-12-07T16:49:11;99832.53;;;2.58;100.00
44213;BME280;29882;46.356;17.798;2022-12-07T16:51:40;99834.00;;;2.62;100.00
44213;BME280;29882;46.356;17.798;2022-12-07T16:54:10;99837.00;;;2.58;100.00
44213;BME280;29882;46.356;17.798;2022-12-07T16:56:38;99837.69;;;2.48;100.00
44213;BME280;29882;46.356;17.798;2022-12-07T16:59:06;99831.63;;;2.46;100.00
44213;BME280;29882;46.356;17.798;2022-12-07T17:01:33;99826.19;;;2.48;100.00
44213;BME280;29882;46.356;17.798;2022-12-07T17:04:01;99829.94;;;2.45;100.00
44213;BME280;29882;46.356;17.798;2022-12-07T17:06:28;99820.09;;;2.35;100.00
44213;BME280;29882;46.356;17.798;2022-12-07T17:08:57;99810.06;;;2.14;100.00
44213;BME280;29882;46.356;17.798;2022-12-07T17:11:27;99838.97;;;2.19;100.00
44213;BME280;29882;46.356;17.798;2022-12-07T17:13:54;99831.31;;;2.14;100.00
44213;BME280;29882;46.356;17.798;2022-12-07T17:16:41;99841.47;;;2.09;100.00
44213;BME280;29882;46.356;17.798;2022-12-07T17:19:12;99843.47;;;2.06;100.00
44213;BME280;29882;46.356;17.798;2022-12-07T17:21:42;99843.69;;;2.03;100.00
44213;BME280;29882;46.356;17.798;2022-12-07T17:24:12;99858.50;;;1.94;100.00
44213;BME280;29882;46.356;17.798;2022-12-07T17:26:39;99844.91;;;1.86;100.00
44213;BME280;29882;46.356;17.798;2022-12-07T17:29:08;99827.31;;;1.72;100.00
44213;BME280;29882;46.356;17.798;2022-12-07T17:31:36;99854.06;;;1.82;100.00
44213;BME280;29882;46.356;17.798;2022-12-07T17:34:07;99835.66;;;1.79;100.00
44213;BME280;29882;46.356;17.798;2022-12-07T17:36:37;99842.06;;;1.76;100.00
44213;BME280;29882;46.356;17.798;2022-12-07T17:39:13;99854.63;;;1.74;100.00
44213;BME280;29882;46.356;17.798;2022-12-07T17:41:41;99849.94;;;1.65;100.00
44213;BME280;29882;46.356;17.798;2022-12-07T17:44:28;99847.22;;;1.54;100.00
44213;BME280;29882;46.356;17.798;2022-12-07T17:46:56;99852.59;;;1.52;100.00
44213;BME280;29882;46.356;17.798;2022-12-07T17:49:26;99844.13;;;1.47;100.00
44213;BME280;29882;46.356;17.798;2022-12-07T17:51:54;99847.72;;;1.46;100.00
44213;BME280;29882;46.356;17.798;2022-12-07T17:54:40;99848.88;;;1.42;100.00
44213;BME280;29882;46.356;17.798;2022-12-07T17:57:08;99818.41;;;1.22;100.00
44213;BME280;29882;46.356;17.798;2022-12-07T17:59:35;99840.09;;;1.29;100.00
44213;BME280;29882;46.356;17.798;2022-12-07T18:02:02;99837.75;;;1.24;100.00
44213;BME280;29882;46.356;17.798;2022-12-07T18:04:32;99847.31;;;1.27;100.00
44213;BME280;29882;46.356;17.798;2022-12-07T18:07:01;99847.41;;;1.25;100.00
44213;BME280;29882;46.356;17.798;2022-12-07T18:09:28;99850.59;;;1.18;100.00
44213;BME280;29882;46.356;17.798;2022-12-07T18:11:56;99836.91;;;1.11;100.00
44213;BME280;29882;46.356;17.798;2022-12-07T18:14:23;99846.34;;;1.15;100.00
44213;BME280;29882;46.356;17.798;2022-12-07T18:16:50;99851.88;;;1.12;100.00
44213;BME280;29882;46.356;17.798;2022-12-07T18:19:19;99839.09;;;1.04;100.00
44213;BME280;29882;46.356;17.798;2022-12-07T18:21:46;99833.28;;;0.99;100.00
44213;BME280;29882;46.356;17.798;2022-12-07T18:24:16;99838.78;;;0.96;100.00
44213;BME280;29882;46.356;17.798;2022-12-07T18:26:44;99831.44;;;0.87;100.00